Terminal Aerodrome Forecast
Issued by NWS

Home | Current Version | Previous Version | Text Only | Print | Product List | Glossary On
Versions: 1 2 3 4 5 6 7 8 9 10 11 12 13 14 15 16 17 18 19
681
FTUS43 KGRR 252251 AAB
TAFJXN
TAF AMD
KJXN 252251Z 2523/2618 33005KT P6SM OVC035
     FM260500 31005KT 5SM BR OVC007
     FM260800 29004KT 2SM BR OVC003
     FM261400 29006KT P6SM OVC012
     FM261600 29006KT P6SM OVC025=

USA.gov is the U.S. government's official web portal to all federal, state and local government web resources and services.